CheckWX is a tool to help pilots better visualize weather data.  It is not intended as a substitute for an official pre-flight weather briefing.

00:56:02 UTC

KBHB TAF
Hancock County-Bar Harbor Airport
Bar Harbor, Maine, USA
KBHB 232320Z 2400/2424 30013G21KT P6SM BKN040 FM240100 32010G18KT P6SM FEW050 FM240900 27009KT P6SM FEW120 FM242000 27010KT P6SM SCT050 FM242200 29008KT P6SM VCSH BKN040

Mar-24@
00:00 UTC

Mar-24 @ 00:00 UTC

Mar-24@
01:00 UTC

Mar-24 @ 01:00 UTC

KBHB 232320Z 2400/2424 30013G21KT P6SM BKN040
Wind
  • 300° at 13 KTS
  • {Gusting to 21 KTS
Cloud Levels
  • Broken at 4,000' AGL

Mar-24@
01:00 UTC

Mar-24 @ 01:00 UTC

Mar-24@
09:00 UTC

Mar-24 @ 09:00 UTC

FM240100 32010G18KT P6SM FEW050

From

From Standard forecast or significant change

Wind
  • 320° at 10 KTS
  • {Gusting to 18 KTS
Cloud Levels
  • Few at 5,000' AGL

Mar-24@
09:00 UTC

Mar-24 @ 09:00 UTC

Mar-24@
20:00 UTC

Mar-24 @ 20:00 UTC

FM240900 27009KT P6SM FEW120

From

From Standard forecast or significant change

Wind
  • 270° at 9 KTS
Cloud Levels
  • Few at 12,000' AGL

Mar-24@
20:00 UTC

Mar-24 @ 20:00 UTC

Mar-24@
22:00 UTC

Mar-24 @ 22:00 UTC

FM242000 27010KT P6SM SCT050

From

From Standard forecast or significant change

Wind
  • 270° at 10 KTS
Cloud Levels
  • Scattered at 5,000' AGL

Mar-24@
22:00 UTC

Mar-24 @ 22:00 UTC

Mar-25@
00:00 UTC

Mar-25 @ 00:00 UTC

FM242200 29008KT P6SM VCSH BKN040

From

From Standard forecast or significant change

Wind
  • 290° at 8 KTS
Cloud Levels
  • Broken at 4,000' AGL